createdAt,value
2019-03-15T00:02:05.908Z,99005.06
2019-03-15T00:05:08.976Z,99005.89
2019-03-15T00:08:12.202Z,99016.80
2019-03-15T00:11:15.469Z,99017.64
2019-03-15T00:14:18.731Z,99014.20
2019-03-15T00:17:21.652Z,99007.17
2019-03-15T00:20:25.769Z,99009.42
2019-03-15T00:23:29.108Z,99021.81
2019-03-15T00:26:32.671Z,99022.97
2019-03-15T00:29:35.882Z,99019.50
2019-03-15T00:32:38.828Z,99036.64
2019-03-15T00:35:42.066Z,99031.66
2019-03-15T00:38:44.985Z,99033.63
2019-03-15T00:41:48.201Z,99029.73
2019-03-15T00:44:51.147Z,99040.07
2019-03-15T00:47:54.960Z,99034.09
2019-03-15T00:50:59.303Z,99039.03
2019-03-15T00:54:02.576Z,99037.33
2019-03-15T00:57:05.514Z,99033.77
2019-03-15T01:00:11.401Z,99035.00
2019-03-15T01:03:14.304Z,99042.63
2019-03-15T01:06:17.286Z,99035.86
2019-03-15T01:09:20.855Z,99040.26
2019-03-15T01:12:25.628Z,99038.52
2019-03-15T01:15:28.881Z,99042.59
2019-03-15T01:18:32.087Z,99025.05
2019-03-15T01:21:35.370Z,99029.77
2019-03-15T01:24:38.751Z,99022.61
2019-03-15T01:27:41.675Z,99013.08
2019-03-15T01:30:44.876Z,99018.02
2019-03-15T01:33:48.760Z,99021.97
2019-03-15T01:36:51.737Z,99018.28
2019-03-15T01:39:55.751Z,99018.47
2019-03-15T01:42:58.965Z,99022.32
2019-03-15T01:46:01.869Z,99019.52
2019-03-15T01:49:04.817Z,99035.69
2019-03-15T01:52:07.734Z,99033.42
2019-03-15T01:55:10.980Z,99029.47
2019-03-15T01:58:14.236Z,99039.55
2019-03-15T02:01:17.153Z,99031.63
2019-03-15T02:04:20.425Z,99030.18
2019-03-15T02:07:24.092Z,99019.78
2019-03-15T02:10:27.360Z,99016.38
2019-03-15T02:13:30.299Z,99018.95
2019-03-15T02:16:33.311Z,99017.60
2019-03-15T02:19:37.377Z,99025.91
2019-03-15T02:22:40.939Z,99013.62
2019-03-15T02:25:44.121Z,99013.69
2019-03-15T02:28:47.062Z,99007.98
2019-03-15T02:31:50.874Z,99008.39
2019-03-15T02:34:54.769Z,99013.59
2019-03-15T02:37:58.349Z,99011.77
2019-03-15T02:41:01.607Z,99007.08
2019-03-15T02:44:04.543Z,99017.57
2019-03-15T02:47:08.081Z,99011.02
2019-03-15T02:50:11.017Z,99013.75
2019-03-15T02:53:14.846Z,99008.55
2019-03-15T02:56:17.769Z,99021.67
2019-03-15T02:59:21.656Z,99019.07
2019-03-15T03:02:24.995Z,99016.86
2019-03-15T03:05:27.966Z,99023.44
2019-03-15T03:08:31.510Z,99022.54
2019-03-15T03:11:34.745Z,99025.05
2019-03-15T03:14:38.032Z,99024.27
2019-03-15T03:17:41.660Z,99026.94
2019-03-15T03:20:44.972Z,99023.70
2019-03-15T03:23:47.929Z,99010.67
2019-03-15T03:26:52.167Z,99013.11
2019-03-15T03:29:55.082Z,99007.20
2019-03-15T03:32:58.976Z,99014.97
2019-03-15T03:36:02.663Z,99007.68
2019-03-15T03:39:06.367Z,99004.19
2019-03-15T03:42:10.910Z,99005.89
2019-03-15T03:45:13.845Z,98992.41
2019-03-15T03:48:17.252Z,99000.14
2019-03-15T03:51:20.162Z,98993.73
2019-03-15T03:54:23.691Z,98996.68
2019-03-15T03:57:26.922Z,98994.47
2019-03-15T04:00:29.863Z,98990.10
2019-03-15T04:03:33.753Z,98986.19
2019-03-15T04:06:36.949Z,98987.92
2019-03-15T04:09:40.297Z,98984.42
2019-03-15T04:12:43.629Z,98982.18
2019-03-15T04:15:46.676Z,98968.19
2019-03-15T04:18:49.950Z,98965.56
2019-03-15T04:21:53.255Z,98966.02
2019-03-15T04:24:56.791Z,98960.39
2019-03-15T04:27:59.702Z,98963.25
2019-03-15T04:31:02.950Z,98949.17
2019-03-15T04:34:05.885Z,98956.16
2019-03-15T04:37:10.083Z,98971.02
2019-03-15T04:40:13.078Z,98971.30
2019-03-15T04:43:16.584Z,98967.32
2019-03-15T04:46:20.700Z,98975.19
2019-03-15T04:49:23.987Z,98971.40
2019-03-15T04:52:27.181Z,98963.19
2019-03-15T04:55:30.124Z,98956.00
2019-03-15T04:58:33.992Z,98956.15
2019-03-15T05:01:37.282Z,98964.66
2019-03-15T05:04:40.265Z,98961.12
2019-03-15T05:07:43.186Z,98954.16
2019-03-15T05:10:47.196Z,98962.09
2019-03-15T05:13:50.801Z,98954.58
2019-03-15T05:16:55.845Z,98957.66
2019-03-15T05:19:59.003Z,98958.39
2019-03-15T05:23:02.902Z,98948.17
2019-03-15T05:26:06.171Z,98941.91
2019-03-15T05:29:09.439Z,98932.66
2019-03-15T05:32:12.701Z,98919.98
2019-03-15T05:35:15.642Z,98916.70
2019-03-15T05:38:18.561Z,98913.93
2019-03-15T05:41:21.929Z,98905.23
2019-03-15T05:44:25.162Z,98914.73
2019-03-15T05:47:28.477Z,98902.98
2019-03-15T05:50:31.714Z,98910.30
2019-03-15T05:53:34.951Z,98905.23
2019-03-15T05:56:37.899Z,98899.77
2019-03-15T05:59:41.737Z,98891.73
2019-03-15T06:02:45.049Z,98884.19
2019-03-15T06:05:48.781Z,98878.61
2019-03-15T06:08:52.448Z,98879.48
2019-03-15T06:11:55.732Z,98873.35
2019-03-15T06:14:58.667Z,98880.55
2019-03-15T06:18:01.603Z,98877.27
2019-03-15T06:21:05.113Z,98883.66
2019-03-15T06:24:08.446Z,98870.23
2019-03-15T06:27:11.364Z,98869.47
2019-03-15T06:30:14.353Z,98863.83
2019-03-15T06:33:17.589Z,98852.48
2019-03-15T06:36:20.522Z,98859.89
2019-03-15T06:39:23.802Z,98856.70
2019-03-15T06:42:27.082Z,98857.73
2019-03-15T06:45:31.808Z,98861.00
2019-03-15T06:48:35.613Z,98853.94
2019-03-15T06:51:38.933Z,98860.52
2019-03-15T06:54:42.276Z,98857.29
2019-03-15T06:57:45.234Z,98857.80
2019-03-15T07:00:48.681Z,98856.63
2019-03-15T07:03:51.928Z,98854.48
2019-03-15T07:06:55.918Z,98850.09
2019-03-15T07:09:59.175Z,98842.92
2019-03-15T07:13:02.897Z,98836.45
2019-03-15T07:16:05.956Z,98842.52
2019-03-15T07:19:09.176Z,98830.50
2019-03-15T07:22:13.185Z,98835.59
2019-03-15T07:25:16.091Z,98844.86
2019-03-15T07:28:19.039Z,98829.28
2019-03-15T07:31:22.660Z,98823.16
2019-03-15T07:34:27.411Z,98817.72
2019-03-15T07:37:30.685Z,98815.23
2019-03-15T07:40:33.606Z,98808.05
2019-03-15T07:43:36.852Z,98799.42
2019-03-15T07:46:40.076Z,98793.06
2019-03-15T07:49:43.208Z,98780.50
2019-03-15T07:52:46.212Z,98776.19
2019-03-15T07:55:50.148Z,98784.49
2019-03-15T07:58:53.093Z,98780.80
2019-03-15T08:01:56.013Z,98781.90
2019-03-15T08:04:58.971Z,98770.92
2019-03-15T08:08:02.516Z,98762.77
2019-03-15T08:11:05.942Z,98753.78
2019-03-15T08:14:09.217Z,98761.03
2019-03-15T08:17:12.524Z,98741.33
2019-03-15T08:20:15.900Z,98737.12
2019-03-15T08:23:18.889Z,98727.17
2019-03-15T08:26:21.833Z,98727.63
2019-03-15T08:29:25.586Z,98722.97
2019-03-15T08:32:29.633Z,98720.67
2019-03-15T08:35:33.675Z,98735.02
2019-03-15T08:38:46.817Z,98713.91
2019-03-15T08:41:41.785Z,98716.31
2019-03-15T08:44:45.467Z,98731.59
2019-03-15T08:47:48.703Z,98720.34
2019-03-15T08:50:52.081Z,98708.09
2019-03-15T08:53:55.717Z,98700.78
2019-03-15T08:56:58.717Z,98689.80
2019-03-15T09:00:02.212Z,98700.21
2019-03-15T09:03:05.332Z,98712.47
2019-03-15T09:06:08.555Z,98723.05
2019-03-15T09:09:11.581Z,98699.64
2019-03-15T09:12:14.873Z,98691.28
2019-03-15T09:15:17.820Z,98705.77
2019-03-15T09:18:20.786Z,98715.48
2019-03-15T09:21:24.026Z,98741.13
2019-03-15T09:24:27.571Z,98727.70
2019-03-15T09:27:30.868Z,98733.88
2019-03-15T09:30:33.793Z,98724.91
2019-03-15T09:33:37.111Z,98728.36
2019-03-15T09:36:50.127Z,98729.83
2019-03-15T09:39:45.233Z,98712.00
2019-03-15T09:42:48.513Z,98710.50
2019-03-15T09:45:55.230Z,98701.92
2019-03-15T09:48:59.690Z,98687.40
2019-03-15T09:52:02.126Z,98676.11
2019-03-15T09:55:05.468Z,98680.88
2019-03-15T09:58:08.408Z,98683.16
2019-03-15T10:01:11.858Z,98693.61
2019-03-15T10:04:17.206Z,98702.36
2019-03-15T10:07:20.692Z,98701.34
2019-03-15T10:10:23.695Z,98698.72
2019-03-15T10:13:26.630Z,98678.66
2019-03-15T10:16:29.857Z,98683.45
2019-03-15T10:19:33.139Z,98679.94
2019-03-15T10:22:36.439Z,98682.25
2019-03-15T10:25:46.704Z,98701.09
2019-03-15T10:28:44.592Z,98687.90
2019-03-15T10:31:48.270Z,98703.27
2019-03-15T10:34:51.196Z,98690.03
2019-03-15T10:37:54.112Z,98696.57
2019-03-15T10:40:57.032Z,98701.62
2019-03-15T10:44:00.298Z,98697.47
2019-03-15T10:47:03.952Z,98684.35
2019-03-15T10:50:07.962Z,98692.27
2019-03-15T10:53:10.886Z,98697.50
2019-03-15T10:56:14.229Z,98698.36
2019-03-15T10:59:17.157Z,98707.43
2019-03-15T11:02:20.469Z,98700.19
2019-03-15T11:05:23.726Z,98701.74
2019-03-15T11:08:27.017Z,98713.17
2019-03-15T11:11:31.445Z,98710.86
2019-03-15T11:14:34.384Z,98725.06
2019-03-15T11:17:37.713Z,98705.36
2019-03-15T11:20:40.653Z,98713.83
2019-03-15T11:23:44.613Z,98725.56
2019-03-15T11:26:47.820Z,98717.45
2019-03-15T11:29:51.244Z,98721.83
2019-03-15T11:32:54.165Z,98719.55
2019-03-15T11:35:57.723Z,98719.95
2019-03-15T11:39:01.315Z,98729.75
2019-03-15T11:42:06.222Z,98745.67
2019-03-15T11:45:10.288Z,98741.64
2019-03-15T11:48:13.520Z,98758.11
2019-03-15T11:51:16.736Z,98721.81
2019-03-15T11:54:20.052Z,98732.14
2019-03-15T11:57:23.627Z,98725.92
2019-03-15T12:00:26.628Z,98723.61
2019-03-15T12:03:29.915Z,98725.58
2019-03-15T12:06:33.556Z,98722.01
2019-03-15T12:09:36.763Z,98718.07
2019-03-15T12:12:39.716Z,98695.12
2019-03-15T12:15:42.996Z,98692.91
2019-03-15T12:18:46.634Z,98699.80
2019-03-15T12:21:49.684Z,98699.34
2019-03-15T12:24:52.953Z,98702.50
2019-03-15T12:27:55.879Z,98703.96
2019-03-15T12:30:58.822Z,98695.30
2019-03-15T12:34:01.843Z,98696.61
2019-03-15T12:37:04.760Z,98706.39
2019-03-15T12:40:08.793Z,98713.92
2019-03-15T12:43:11.701Z,98703.04
2019-03-15T12:46:14.678Z,98699.86
2019-03-15T12:49:17.608Z,98692.31
2019-03-15T12:52:20.852Z,98693.31
2019-03-15T12:55:36.442Z,98685.55
2019-03-15T12:58:39.657Z,98690.44
2019-03-15T13:01:42.621Z,98690.16
2019-03-15T13:04:45.913Z,98694.00
2019-03-15T13:07:49.488Z,98687.31
2019-03-15T13:10:52.784Z,98697.89
2019-03-15T13:13:56.021Z,98683.98
2019-03-15T13:16:59.483Z,98682.39
2019-03-15T13:20:03.268Z,98672.63
2019-03-15T13:23:06.284Z,98674.42
2019-03-15T13:26:09.549Z,98673.13
2019-03-15T13:29:12.723Z,98672.30
2019-03-15T13:32:15.747Z,98676.85
2019-03-15T13:35:19.134Z,98669.67
2019-03-15T13:38:22.082Z,98667.51
2019-03-15T13:41:25.037Z,98652.80
2019-03-15T13:44:28.685Z,98654.73
2019-03-15T13:47:31.616Z,98651.63
2019-03-15T13:50:34.810Z,98651.69
2019-03-15T13:53:38.452Z,98670.62
2019-03-15T13:56:41.817Z,98660.44
2019-03-15T13:59:44.750Z,98659.91
2019-03-15T14:02:47.967Z,98652.61
2019-03-15T14:05:51.284Z,98656.92
2019-03-15T14:08:55.638Z,98670.70
2019-03-15T14:11:58.562Z,98650.02
2019-03-15T14:15:01.582Z,98653.59
2019-03-15T14:18:04.926Z,98641.68
2019-03-15T14:21:08.191Z,98648.98
2019-03-15T14:24:11.420Z,98654.51
2019-03-15T14:27:14.336Z,98655.96
2019-03-15T14:30:17.291Z,98668.73
2019-03-15T14:33:20.190Z,98664.36
2019-03-15T14:36:23.208Z,98689.78
2019-03-15T14:39:26.563Z,98663.62
2019-03-15T14:42:29.574Z,98661.59
2019-03-15T14:45:32.752Z,98675.13
2019-03-15T14:48:35.960Z,98684.95
2019-03-15T14:51:38.889Z,98662.58
2019-03-15T14:54:42.494Z,98666.84
2019-03-15T14:57:52.591Z,98680.25
2019-03-15T15:00:50.698Z,98665.38
2019-03-15T15:03:53.603Z,98685.92
2019-03-15T15:06:57.306Z,98704.79
2019-03-15T15:10:00.552Z,98699.06
2019-03-15T15:13:03.459Z,98689.87
2019-03-15T15:16:06.778Z,98705.71
2019-03-15T15:19:10.448Z,98702.76
2019-03-15T15:22:14.065Z,98687.64
2019-03-15T15:25:17.471Z,98686.20
2019-03-15T15:28:21.113Z,98701.71
2019-03-15T15:31:24.044Z,98696.55
2019-03-15T15:34:26.977Z,98687.19
2019-03-15T15:37:30.226Z,98696.66
2019-03-15T15:40:34.286Z,98686.94
2019-03-15T15:43:37.570Z,98692.63
2019-03-15T15:46:40.518Z,98676.23
2019-03-15T15:49:44.033Z,98669.74
2019-03-15T15:52:47.467Z,98677.86
2019-03-15T15:55:51.479Z,98663.00
2019-03-15T15:58:54.702Z,98660.84
2019-03-15T16:01:57.940Z,98682.02
2019-03-15T16:05:00.870Z,98660.48
2019-03-15T16:08:03.837Z,98665.52
2019-03-15T16:11:07.057Z,98668.14
2019-03-15T16:14:10.387Z,98687.52
2019-03-15T16:17:13.292Z,98693.25
2019-03-15T16:20:16.231Z,98691.13
2019-03-15T16:23:20.589Z,98702.51
2019-03-15T16:26:23.823Z,98706.11
2019-03-15T16:29:27.086Z,98713.86
2019-03-15T16:32:30.008Z,98708.08
2019-03-15T16:35:33.308Z,98707.61
2019-03-15T16:38:36.563Z,98698.54
2019-03-15T16:41:39.496Z,98692.54
2019-03-15T16:44:43.905Z,98694.02
2019-03-15T16:47:46.850Z,98727.06
2019-03-15T16:50:51.858Z,98716.73
2019-03-15T16:53:55.370Z,98734.66
2019-03-15T16:56:58.998Z,98723.61
2019-03-15T17:00:02.246Z,98755.78
2019-03-15T17:03:05.943Z,98771.53
2019-03-15T17:06:09.503Z,98787.30
2019-03-15T17:09:12.753Z,98783.89
2019-03-15T17:12:15.679Z,98792.73
2019-03-15T17:15:18.695Z,98789.28
2019-03-15T17:18:21.595Z,98782.56
2019-03-15T17:21:24.568Z,98781.23
2019-03-15T17:24:27.866Z,98780.84
2019-03-15T17:27:30.936Z,98799.34
2019-03-15T17:30:34.642Z,98792.62
2019-03-15T17:33:37.968Z,98801.85
2019-03-15T17:36:41.234Z,98809.92
2019-03-15T17:39:44.624Z,98815.22
2019-03-15T17:42:48.641Z,98824.16
2019-03-15T17:45:52.563Z,98819.84
2019-03-15T17:48:55.487Z,98834.89
2019-03-15T17:51:59.806Z,98837.52
2019-03-15T17:55:03.363Z,98856.00
2019-03-15T17:58:06.693Z,98846.08
2019-03-15T18:01:10.779Z,98856.23
2019-03-15T18:04:14.485Z,98864.58
2019-03-15T18:07:17.427Z,98879.44
2019-03-15T18:10:20.383Z,98883.03
2019-03-15T18:13:23.328Z,98896.98
2019-03-15T18:16:26.845Z,98899.11
2019-03-15T18:19:30.204Z,98909.05
2019-03-15T18:22:33.460Z,98928.34
2019-03-15T18:25:36.904Z,98935.59
2019-03-15T18:28:39.949Z,98957.66
2019-03-15T18:31:43.241Z,98957.98
2019-03-15T18:34:46.998Z,98959.81
2019-03-15T18:37:50.276Z,98956.25
2019-03-15T18:40:53.931Z,98941.61
2019-03-15T18:43:57.527Z,98958.13
2019-03-15T18:47:00.598Z,98958.25
2019-03-15T18:50:04.259Z,98951.98
2019-03-15T18:53:07.186Z,98960.72
2019-03-15T18:56:10.480Z,98973.59
2019-03-15T18:59:13.851Z,98966.64
2019-03-15T19:02:16.867Z,98974.11
2019-03-15T19:05:20.853Z,98990.87
2019-03-15T19:08:24.712Z,98992.33
2019-03-15T19:11:28.786Z,98989.43
2019-03-15T19:14:32.328Z,99000.45
2019-03-15T19:17:35.641Z,99005.89
2019-03-15T19:20:38.989Z,99009.38
2019-03-15T19:23:42.079Z,99010.86
2019-03-15T19:26:45.796Z,99019.23
2019-03-15T19:29:53.491Z,99023.65
2019-03-15T19:32:54.409Z,99028.23
2019-03-15T19:35:57.400Z,99037.27
2019-03-15T19:39:00.762Z,99046.63
2019-03-15T19:42:04.501Z,99060.23
2019-03-15T19:45:10.228Z,99048.31
2019-03-15T19:48:13.354Z,99056.28
2019-03-15T19:51:17.048Z,99067.30
2019-03-15T19:54:20.083Z,99070.47
2019-03-15T19:57:23.224Z,99092.30
2019-03-15T20:00:26.488Z,99095.13
2019-03-15T20:03:43.305Z,99092.62
2019-03-15T20:06:35.743Z,99103.06
2019-03-15T20:09:38.992Z,99116.88
2019-03-15T20:12:42.036Z,99127.44
2019-03-15T20:15:44.995Z,99144.86
2019-03-15T20:18:48.339Z,99129.99
2019-03-15T20:21:51.746Z,99150.25
2019-03-15T20:24:54.870Z,99155.68
2019-03-15T20:27:57.917Z,99144.25
2019-03-15T20:31:01.017Z,99156.73
2019-03-15T20:34:04.273Z,99148.32
2019-03-15T20:37:07.585Z,99160.33
2019-03-15T20:40:10.703Z,99152.47
2019-03-15T20:43:13.682Z,99165.56
2019-03-15T20:46:16.601Z,99166.51
2019-03-15T20:49:19.707Z,99183.70
2019-03-15T20:52:23.575Z,99185.66
2019-03-15T20:55:28.859Z,99186.19
2019-03-15T20:58:32.102Z,99196.34
2019-03-15T21:01:35.381Z,99188.64
2019-03-15T21:04:38.435Z,99190.48
2019-03-15T21:07:43.558Z,99178.91
2019-03-15T21:10:46.761Z,99179.44
2019-03-15T21:13:49.836Z,99183.09
2019-03-15T21:16:53.797Z,99188.27
2019-03-15T21:19:57.486Z,99196.22
2019-03-15T21:23:00.749Z,99192.71
2019-03-15T21:26:04.161Z,99194.83
2019-03-15T21:29:07.400Z,99201.95
2019-03-15T21:32:10.754Z,99202.75
2019-03-15T21:35:13.821Z,99204.50
2019-03-15T21:38:16.756Z,99194.02
2019-03-15T21:41:20.082Z,99202.81
2019-03-15T21:44:22.996Z,99203.72
2019-03-15T21:47:25.954Z,99203.72
2019-03-15T21:50:29.430Z,99220.89
2019-03-15T21:53:33.411Z,99221.11
2019-03-15T21:56:36.379Z,99223.53
2019-03-15T21:59:40.843Z,99222.28
2019-03-15T22:02:44.314Z,99221.14
2019-03-15T22:05:48.232Z,99222.86
2019-03-15T22:08:51.867Z,99241.20
2019-03-15T22:11:58.207Z,99242.48
2019-03-15T22:15:01.219Z,99234.41
2019-03-15T22:18:05.161Z,99246.40
2019-03-15T22:21:08.854Z,99274.56
2019-03-15T22:24:11.767Z,99269.31
2019-03-15T22:27:15.036Z,99269.11
2019-03-15T22:30:18.639Z,99268.97
2019-03-15T22:33:22.533Z,99273.06
2019-03-15T22:36:25.740Z,99279.98
2019-03-15T22:39:29.966Z,99277.96
2019-03-15T22:42:33.252Z,99256.23
2019-03-15T22:45:36.188Z,99273.00
2019-03-15T22:48:39.659Z,99288.94
2019-03-15T22:51:42.851Z,99289.49
2019-03-15T22:54:46.488Z,99289.80
2019-03-15T22:57:59.333Z,99300.74
2019-03-15T23:00:55.382Z,99292.17
2019-03-15T23:03:58.408Z,99306.37
2019-03-15T23:07:01.669Z,99310.78
2019-03-15T23:10:04.903Z,99315.02
2019-03-15T23:13:08.436Z,99319.67
2019-03-15T23:16:11.382Z,99326.97
2019-03-15T23:19:14.738Z,99339.75
2019-03-15T23:22:18.043Z,99349.47
2019-03-15T23:25:21.229Z,99343.25
2019-03-15T23:28:24.526Z,99345.48
2019-03-15T23:31:27.550Z,99348.70
2019-03-15T23:34:31.130Z,99339.02
2019-03-15T23:37:34.060Z,99342.56
2019-03-15T23:40:36.985Z,99341.41
2019-03-15T23:43:39.925Z,99346.06
2019-03-15T23:46:42.855Z,99353.02
2019-03-15T23:49:46.155Z,99351.17
2019-03-15T23:52:49.380Z,99345.82
2019-03-15T23:55:54.890Z,99348.42
2019-03-15T23:58:57.459Z,99355.09
